sensor_id;sensor_type;location;lat;lon;timestamp;temperature;humidity
65369;HTU21D;51970;53.484;49.488;2023-02-13T00:00:33;-4.93;75.00
65369;HTU21D;51970;53.484;49.488;2023-02-13T00:02:59;-4.94;75.16
65369;HTU21D;51970;53.484;49.488;2023-02-13T00:05:25;-4.93;75.26
65369;HTU21D;51970;53.484;49.488;2023-02-13T00:07:52;-4.07;75.37
65369;HTU21D;51970;53.484;49.488;2023-02-13T00:10:18;-5.03;75.61
65369;HTU21D;51970;53.484;49.488;2023-02-13T00:12:44;-5.02;75.79
65369;HTU21D;51970;53.484;49.488;2023-02-13T00:15:10;-5.05;75.69
65369;HTU21D;51970;53.484;49.488;2023-02-13T00:17:36;-5.10;75.90
65369;HTU21D;51970;53.484;49.488;2023-02-13T00:20:03;-5.08;76.10
65369;HTU21D;51970;53.484;49.488;2023-02-13T00:22:30;-5.05;75.90
65369;HTU21D;51970;53.484;49.488;2023-02-13T00:24:59;-5.05;75.94
65369;HTU21D;51970;53.484;49.488;2023-02-13T00:27:25;-5.09;76.18
65369;HTU21D;51970;53.484;49.488;2023-02-13T00:29:51;-5.12;76.53
65369;HTU21D;51970;53.484;49.488;2023-02-13T00:32:17;-5.11;76.52
65369;HTU21D;51970;53.484;49.488;2023-02-13T00:34:43;-5.11;76.67
65369;HTU21D;51970;53.484;49.488;2023-02-13T00:37:09;-5.11;76.51
65369;HTU21D;51970;53.484;49.488;2023-02-13T00:39:35;-5.09;76.29
65369;HTU21D;51970;53.484;49.488;2023-02-13T00:42:02;-5.11;76.20
65369;HTU21D;51970;53.484;49.488;2023-02-13T00:44:28;-5.09;76.31
65369;HTU21D;51970;53.484;49.488;2023-02-13T00:46:54;-5.09;76.14
65369;HTU21D;51970;53.484;49.488;2023-02-13T00:49:20;-5.09;76.19
65369;HTU21D;51970;53.484;49.488;2023-02-13T00:51:46;-5.07;76.32
65369;HTU21D;51970;53.484;49.488;2023-02-13T00:54:12;-5.10;76.34
65369;HTU21D;51970;53.484;49.488;2023-02-13T00:56:38;-5.18;76.34
65369;HTU21D;51970;53.484;49.488;2023-02-13T00:59:04;-5.24;76.85
65369;HTU21D;51970;53.484;49.488;2023-02-13T01:01:31;-5.23;76.98
65369;HTU21D;51970;53.484;49.488;2023-02-13T01:03:57;-5.15;76.61
65369;HTU21D;51970;53.484;49.488;2023-02-13T01:06:23;-5.17;76.59
65369;HTU21D;51970;53.484;49.488;2023-02-13T01:08:49;-5.09;76.58
65369;HTU21D;51970;53.484;49.488;2023-02-13T01:11:15;-5.08;76.03
65369;HTU21D;51970;53.484;49.488;2023-02-13T01:13:41;-5.10;76.08
65369;HTU21D;51970;53.484;49.488;2023-02-13T01:16:07;-5.13;76.31
65369;HTU21D;51970;53.484;49.488;2023-02-13T01:18:33;-5.09;76.24
65369;HTU21D;51970;53.484;49.488;2023-02-13T01:21:02;-5.02;76.05
65369;HTU21D;51970;53.484;49.488;2023-02-13T01:23:36;-5.13;76.28
65369;HTU21D;51970;53.484;49.488;2023-02-13T01:26:04;-5.07;76.37
65369;HTU21D;51970;53.484;49.488;2023-02-13T01:28:30;-5.04;75.91
65369;HTU21D;51970;53.484;49.488;2023-02-13T01:30:57;-5.04;75.95
65369;HTU21D;51970;53.484;49.488;2023-02-13T01:33:24;-5.08;75.84
65369;HTU21D;51970;53.484;49.488;2023-02-13T01:35:51;-4.99;75.44
65369;HTU21D;51970;53.484;49.488;2023-02-13T01:38:17;-5.04;75.42
65369;HTU21D;51970;53.484;49.488;2023-02-13T01:40:49;-4.99;75.48
65369;HTU21D;51970;53.484;49.488;2023-02-13T01:43:15;-5.01;75.24
65369;HTU21D;51970;53.484;49.488;2023-02-13T01:45:43;-4.95;75.24
65369;HTU21D;51970;53.484;49.488;2023-02-13T01:48:19;-5.00;75.27
65369;HTU21D;51970;53.484;49.488;2023-02-13T01:50:59;-5.03;75.42
65369;HTU21D;51970;53.484;49.488;2023-02-13T01:54:21;-5.03;74.93
65369;HTU21D;51970;53.484;49.488;2023-02-13T01:57:03;-5.15;75.34
65369;HTU21D;51970;53.484;49.488;2023-02-13T01:59:32;-5.10;75.54
65369;HTU21D;51970;53.484;49.488;2023-02-13T02:02:00;-4.14;75.42
65369;HTU21D;51970;53.484;49.488;2023-02-13T02:04:31;-5.20;75.71
65369;HTU21D;51970;53.484;49.488;2023-02-13T02:07:03;-5.16;75.83
65369;HTU21D;51970;53.484;49.488;2023-02-13T02:09:34;-5.12;75.93
65369;HTU21D;51970;53.484;49.488;2023-02-13T02:12:42;-5.15;75.79
65369;HTU21D;51970;53.484;49.488;2023-02-13T02:15:09;-5.12;75.86
65369;HTU21D;51970;53.484;49.488;2023-02-13T02:17:35;-5.14;75.68
65369;HTU21D;51970;53.484;49.488;2023-02-13T02:31:47;-5.11;76.04
65369;HTU21D;51970;53.484;49.488;2023-02-13T02:34:30;-5.07;76.22
65369;HTU21D;51970;53.484;49.488;2023-02-13T02:50:36;-5.01;77.15
65369;HTU21D;51970;53.484;49.488;2023-02-13T02:53:43;-4.95;77.05
65369;HTU21D;51970;53.484;49.488;2023-02-13T02:58:54;-4.05;77.15
65369;HTU21D;51970;53.484;49.488;2023-02-13T03:01:41;-4.84;76.91
65369;HTU21D;51970;53.484;49.488;2023-02-13T03:04:35;-4.84;76.75
65369;HTU21D;51970;53.484;49.488;2023-02-13T03:07:21;-4.79;76.55
65369;HTU21D;51970;53.484;49.488;2023-02-13T03:09:51;-4.87;76.48
65369;HTU21D;51970;53.484;49.488;2023-02-13T03:13:10;-4.86;76.79
65369;HTU21D;51970;53.484;49.488;2023-02-13T03:15:50;-4.79;76.73
65369;HTU21D;51970;53.484;49.488;2023-02-13T03:18:40;-4.79;76.54
65369;HTU21D;51970;53.484;49.488;2023-02-13T03:21:48;-4.80;76.49
65369;HTU21D;51970;53.484;49.488;2023-02-13T03:39:00;-4.66;76.21
65369;HTU21D;51970;53.484;49.488;2023-02-13T03:41:40;-4.68;76.08
65369;HTU21D;51970;53.484;49.488;2023-02-13T03:44:14;-4.69;76.35
65369;HTU21D;51970;53.484;49.488;2023-02-13T03:46:43;-4.67;76.61
65369;HTU21D;51970;53.484;49.488;2023-02-13T03:49:22;-4.71;76.39
65369;HTU21D;51970;53.484;49.488;2023-02-13T03:52:32;-4.64;76.73
65369;HTU21D;51970;53.484;49.488;2023-02-13T03:55:06;-4.58;76.63
65369;HTU21D;51970;53.484;49.488;2023-02-13T03:57:53;-4.56;76.41
65369;HTU21D;51970;53.484;49.488;2023-02-13T04:00:48;-4.58;76.34
65369;HTU21D;51970;53.484;49.488;2023-02-13T04:03:23;-4.65;76.77
65369;HTU21D;51970;53.484;49.488;2023-02-13T04:05:55;-4.61;76.89
65369;HTU21D;51970;53.484;49.488;2023-02-13T04:08:22;-4.55;76.89
65369;HTU21D;51970;53.484;49.488;2023-02-13T04:11:02;-4.49;76.71
65369;HTU21D;51970;53.484;49.488;2023-02-13T04:13:41;-4.43;76.77
65369;HTU21D;51970;53.484;49.488;2023-02-13T04:16:09;-4.40;76.22
65369;HTU21D;51970;53.484;49.488;2023-02-13T04:18:39;-4.42;76.45
65369;HTU21D;51970;53.484;49.488;2023-02-13T04:21:08;-4.36;76.53
65369;HTU21D;51970;53.484;49.488;2023-02-13T04:23:34;-4.35;76.51
65369;HTU21D;51970;53.484;49.488;2023-02-13T04:26:13;-4.30;76.51
65369;HTU21D;51970;53.484;49.488;2023-02-13T04:28:44;-4.13;76.46
65369;HTU21D;51970;53.484;49.488;2023-02-13T04:31:18;-4.16;76.21
65369;HTU21D;51970;53.484;49.488;2023-02-13T04:33:44;-4.16;76.28
65369;HTU21D;51970;53.484;49.488;2023-02-13T04:36:11;-4.06;76.22
65369;HTU21D;51970;53.484;49.488;2023-02-13T04:38:42;-4.05;75.79
65369;HTU21D;51970;53.484;49.488;2023-02-13T04:41:34;-3.99;75.63
65369;HTU21D;51970;53.484;49.488;2023-02-13T04:44:00;-4.07;75.89
65369;HTU21D;51970;53.484;49.488;2023-02-13T04:46:26;-4.01;75.90
65369;HTU21D;51970;53.484;49.488;2023-02-13T04:48:56;-3.94;75.89
65369;HTU21D;51970;53.484;49.488;2023-02-13T04:51:25;-4.00;75.95
65369;HTU21D;51970;53.484;49.488;2023-02-13T04:54:00;-3.94;76.37
65369;HTU21D;51970;53.484;49.488;2023-02-13T04:56:40;-3.82;76.01
65369;HTU21D;51970;53.484;49.488;2023-02-13T04:59:18;-3.76;75.87
65369;HTU21D;51970;53.484;49.488;2023-02-13T05:01:56;-3.60;75.32
65369;HTU21D;51970;53.484;49.488;2023-02-13T05:04:51;-3.47;75.17
65369;HTU21D;51970;53.484;49.488;2023-02-13T05:07:20;-3.46;74.92
65369;HTU21D;51970;53.484;49.488;2023-02-13T05:09:55;-3.47;74.76
65369;HTU21D;51970;53.484;49.488;2023-02-13T05:12:22;-3.50;75.23
65369;HTU21D;51970;53.484;49.488;2023-02-13T05:14:50;-3.60;75.42
65369;HTU21D;51970;53.484;49.488;2023-02-13T05:17:51;-3.60;75.78
65369;HTU21D;51970;53.484;49.488;2023-02-13T05:20:35;-3.52;75.63
65369;HTU21D;51970;53.484;49.488;2023-02-13T05:23:24;-3.45;75.24
65369;HTU21D;51970;53.484;49.488;2023-02-13T05:26:03;-3.35;75.05
65369;HTU21D;51970;53.484;49.488;2023-02-13T05:28:53;-3.23;74.71
65369;HTU21D;51970;53.484;49.488;2023-02-13T05:32:00;-3.09;74.18
65369;HTU21D;51970;53.484;49.488;2023-02-13T05:34:41;-3.10;74.14
65369;HTU21D;51970;53.484;49.488;2023-02-13T05:37:41;-3.03;73.98
65369;HTU21D;51970;53.484;49.488;2023-02-13T05:40:19;-3.17;74.51
65369;HTU21D;51970;53.484;49.488;2023-02-13T05:42:48;-3.01;74.38
65369;HTU21D;51970;53.484;49.488;2023-02-13T05:46:08;-3.07;74.08
65369;HTU21D;51970;53.484;49.488;2023-02-13T05:49:04;-3.03;74.51
65369;HTU21D;51970;53.484;49.488;2023-02-13T05:51:49;-2.59;73.57
65369;HTU21D;51970;53.484;49.488;2023-02-13T05:54:48;-2.06;71.82
65369;HTU21D;51970;53.484;49.488;2023-02-13T05:57:16;-1.95;70.70
65369;HTU21D;51970;53.484;49.488;2023-02-13T05:59:53;-1.82;69.98
65369;HTU21D;51970;53.484;49.488;2023-02-13T06:02:57;-1.97;70.67
65369;HTU21D;51970;53.484;49.488;2023-02-13T06:05:30;-2.34;71.87
65369;HTU21D;51970;53.484;49.488;2023-02-13T06:11:10;-2.58;72.80
65369;HTU21D;51970;53.484;49.488;2023-02-13T06:13:43;-2.75;72.77
65369;HTU21D;51970;53.484;49.488;2023-02-13T06:16:10;-2.98;73.86
65369;HTU21D;51970;53.484;49.488;2023-02-13T06:18:41;-2.94;73.79
65369;HTU21D;51970;53.484;49.488;2023-02-13T06:21:13;-2.93;74.39
65369;HTU21D;51970;53.484;49.488;2023-02-13T06:23:49;-2.79;74.36
65369;HTU21D;51970;53.484;49.488;2023-02-13T06:29:12;-2.91;74.18
65369;HTU21D;51970;53.484;49.488;2023-02-13T06:31:40;-2.81;74.12
65369;HTU21D;51970;53.484;49.488;2023-02-13T06:34:08;-2.81;74.08
65369;HTU21D;51970;53.484;49.488;2023-02-13T06:36:53;-2.61;73.98
65369;HTU21D;51970;53.484;49.488;2023-02-13T06:39:26;-2.49;73.74
65369;HTU21D;51970;53.484;49.488;2023-02-13T06:41:53;-2.67;73.22
65369;HTU21D;51970;53.484;49.488;2023-02-13T06:44:26;-2.37;73.76
65369;HTU21D;51970;53.484;49.488;2023-02-13T06:46:57;-2.26;73.10
65369;HTU21D;51970;53.484;49.488;2023-02-13T06:49:34;-2.57;73.13
65369;HTU21D;51970;53.484;49.488;2023-02-13T06:52:11;-2.68;73.73
65369;HTU21D;51970;53.484;49.488;2023-02-13T06:54:43;-2.65;74.31
65369;HTU21D;51970;53.484;49.488;2023-02-13T06:57:29;-2.68;73.94
65369;HTU21D;51970;53.484;49.488;2023-02-13T07:00:09;-2.59;73.90
65369;HTU21D;51970;53.484;49.488;2023-02-13T07:03:00;-2.58;73.74
65369;HTU21D;51970;53.484;49.488;2023-02-13T07:05:29;-2.56;73.70
65369;HTU21D;51970;53.484;49.488;2023-02-13T07:08:22;-2.59;73.59
65369;HTU21D;51970;53.484;49.488;2023-02-13T07:11:26;-2.43;73.26
65369;HTU21D;51970;53.484;49.488;2023-02-13T07:13:59;-2.26;73.48
65369;HTU21D;51970;53.484;49.488;2023-02-13T07:16:32;-2.23;72.82
65369;HTU21D;51970;53.484;49.488;2023-02-13T07:19:18;-2.31;72.81
65369;HTU21D;51970;53.484;49.488;2023-02-13T07:21:47;-2.35;72.59
65369;HTU21D;51970;53.484;49.488;2023-02-13T07:24:21;-2.35;73.13
65369;HTU21D;51970;53.484;49.488;2023-02-13T07:26:49;-2.42;73.13
65369;HTU21D;51970;53.484;49.488;2023-02-13T07:29:18;-2.34;73.10
65369;HTU21D;51970;53.484;49.488;2023-02-13T07:32:41;-2.37;73.46
65369;HTU21D;51970;53.484;49.488;2023-02-13T07:35:12;-2.38;73.71
65369;HTU21D;51970;53.484;49.488;2023-02-13T07:37:42;-2.37;73.30
65369;HTU21D;51970;53.484;49.488;2023-02-13T07:40:23;-2.42;73.22
65369;HTU21D;51970;53.484;49.488;2023-02-13T07:43:17;-2.30;73.26
65369;HTU21D;51970;53.484;49.488;2023-02-13T07:45:49;-2.13;72.43
65369;HTU21D;51970;53.484;49.488;2023-02-13T07:48:28;-1.94;72.31
65369;HTU21D;51970;53.484;49.488;2023-02-13T07:51:31;-1.73;72.00
65369;HTU21D;51970;53.484;49.488;2023-02-13T07:53:58;-1.62;71.84
65369;HTU21D;51970;53.484;49.488;2023-02-13T07:56:24;-1.49;71.26
65369;HTU21D;51970;53.484;49.488;2023-02-13T07:58:51;-1.43;70.87
65369;HTU21D;51970;53.484;49.488;2023-02-13T08:01:19;-1.32;70.99
65369;HTU21D;51970;53.484;49.488;2023-02-13T08:03:53;-1.11;70.74
65369;HTU21D;51970;53.484;49.488;2023-02-13T08:06:20;-0.91;70.23
65369;HTU21D;51970;53.484;49.488;2023-02-13T08:08:49;-0.84;69.34
65369;HTU21D;51970;53.484;49.488;2023-02-13T08:11:39;-0.98;69.33
65369;HTU21D;51970;53.484;49.488;2023-02-13T08:14:30;-1.09;69.78
65369;HTU21D;51970;53.484;49.488;2023-02-13T08:16:57;-1.13;70.29
65369;HTU21D;51970;53.484;49.488;2023-02-13T08:19:28;-1.23;69.94
65369;HTU21D;51970;53.484;49.488;2023-02-13T08:21:58;-1.26;70.12
65369;HTU21D;51970;53.484;49.488;2023-02-13T08:24:27;-1.29;70.54
65369;HTU21D;51970;53.484;49.488;2023-02-13T08:26:55;-1.14;70.70
65369;HTU21D;51970;53.484;49.488;2023-02-13T08:29:22;-0.83;70.01
65369;HTU21D;51970;53.484;49.488;2023-02-13T08:32:05;-0.85;68.56
65369;HTU21D;51970;53.484;49.488;2023-02-13T08:35:30;-0.84;69.24
65369;HTU21D;51970;53.484;49.488;2023-02-13T08:38:30;-0.64;68.66
65369;HTU21D;51970;53.484;49.488;2023-02-13T08:41:00;-0.62;68.52
65369;HTU21D;51970;53.484;49.488;2023-02-13T08:43:37;-0.54;68.85
65369;HTU21D;51970;53.484;49.488;2023-02-13T08:46:18;-0.60;68.36
65369;HTU21D;51970;53.484;49.488;2023-02-13T08:48:47;-0.80;69.54
65369;HTU21D;51970;53.484;49.488;2023-02-13T08:51:14;-1.02;70.06
65369;HTU21D;51970;53.484;49.488;2023-02-13T08:53:40;-1.13;70.97
65369;HTU21D;51970;53.484;49.488;2023-02-13T08:56:07;-1.31;71.73
65369;HTU21D;51970;53.484;49.488;2023-02-13T08:58:33;-1.18;72.30
65369;HTU21D;51970;53.484;49.488;2023-02-13T09:00:59;-1.18;72.00
65369;HTU21D;51970;53.484;49.488;2023-02-13T09:03:28;-1.13;72.10
65369;HTU21D;51970;53.484;49.488;2023-02-13T09:05:58;-1.08;71.34
65369;HTU21D;51970;53.484;49.488;2023-02-13T09:08:25;-1.09;71.48
65369;HTU21D;51970;53.484;49.488;2023-02-13T09:10:56;-1.15;71.77
65369;HTU21D;51970;53.484;49.488;2023-02-13T09:13:25;-1.15;71.59
65369;HTU21D;51970;53.484;49.488;2023-02-13T09:15:52;-1.23;71.81
65369;HTU21D;51970;53.484;49.488;2023-02-13T09:18:19;-1.24;72.18
65369;HTU21D;51970;53.484;49.488;2023-02-13T09:21:01;-1.38;72.45
65369;HTU21D;51970;53.484;49.488;2023-02-13T09:23:36;-1.38;72.82
65369;HTU21D;51970;53.484;49.488;2023-02-13T09:26:05;-1.32;72.98
65369;HTU21D;51970;53.484;49.488;2023-02-13T09:29:00;-1.41;73.30
65369;HTU21D;51970;53.484;49.488;2023-02-13T09:31:51;-1.46;73.78
65369;HTU21D;51970;53.484;49.488;2023-02-13T09:34:22;-1.48;73.81
65369;HTU21D;51970;53.484;49.488;2023-02-13T09:36:52;-1.34;74.11
65369;HTU21D;51970;53.484;49.488;2023-02-13T09:39:22;-1.42;74.64
65369;HTU21D;51970;53.484;49.488;2023-02-13T09:42:35;-1.32;74.00
65369;HTU21D;51970;53.484;49.488;2023-02-13T09:45:04;-1.30;74.30
65369;HTU21D;51970;53.484;49.488;2023-02-13T09:47:36;-1.18;73.99
65369;HTU21D;51970;53.484;49.488;2023-02-13T09:52:35;-0.93;73.84
65369;HTU21D;51970;53.484;49.488;2023-02-13T09:55:39;-0.75;73.16
65369;HTU21D;51970;53.484;49.488;2023-02-13T10:00:54;-0.70;72.27
65369;HTU21D;51970;53.484;49.488;2023-02-13T10:06:38;-0.53;72.27
65369;HTU21D;51970;53.484;49.488;2023-02-13T10:18:18;-0.01;70.14
65369;HTU21D;51970;53.484;49.488;2023-02-13T10:20:55;0.03;70.29
65369;HTU21D;51970;53.484;49.488;2023-02-13T10:27:52;-0.17;71.28
65369;HTU21D;51970;53.484;49.488;2023-02-13T10:31:28;-0.19;71.27
65369;HTU21D;51970;53.484;49.488;2023-02-13T10:34:54;0.03;71.61
65369;HTU21D;51970;53.484;49.488;2023-02-13T10:37:51;0.03;71.48
65369;HTU21D;51970;53.484;49.488;2023-02-13T10:40:30;0.28;70.93
65369;HTU21D;51970;53.484;49.488;2023-02-13T10:43:29;0.06;71.22
65369;HTU21D;51970;53.484;49.488;2023-02-13T10:53:22;0.02;72.68
65369;HTU21D;51970;53.484;49.488;2023-02-13T10:56:25;0.10;72.06
65369;HTU21D;51970;53.484;49.488;2023-02-13T11:02:30;0.05;72.26
65369;HTU21D;51970;53.484;49.488;2023-02-13T11:05:27;-0.24;73.45
65369;HTU21D;51970;53.484;49.488;2023-02-13T11:09:08;-0.35;74.31
65369;HTU21D;51970;53.484;49.488;2023-02-13T11:12:31;-0.43;74.71
65369;HTU21D;51970;53.484;49.488;2023-02-13T11:15:29;-0.56;75.41
65369;HTU21D;51970;53.484;49.488;2023-02-13T11:21:36;-0.38;75.95
65369;HTU21D;51970;53.484;49.488;2023-02-13T11:24:33;-0.19;75.31
65369;HTU21D;51970;53.484;49.488;2023-02-13T11:27:41;-0.03;75.12
65369;HTU21D;51970;53.484;49.488;2023-02-13T11:30:41;-0.20;75.31
65369;HTU21D;51970;53.484;49.488;2023-02-13T11:35:46;-0.07;74.47
65369;HTU21D;51970;53.484;49.488;2023-02-13T11:38:21;-0.10;74.75
65369;HTU21D;51970;53.484;49.488;2023-02-13T11:41:09;-0.10;75.09
65369;HTU21D;51970;53.484;49.488;2023-02-13T11:43:49;0.02;74.83
65369;HTU21D;51970;53.484;49.488;2023-02-13T11:46:23;0.39;73.93
65369;HTU21D;51970;53.484;49.488;2023-02-13T11:49:00;0.29;74.09
65369;HTU21D;51970;53.484;49.488;2023-02-13T11:51:47;0.28;74.81
65369;HTU21D;51970;53.484;49.488;2023-02-13T11:57:28;-0.05;75.53
65369;HTU21D;51970;53.484;49.488;2023-02-13T11:59:57;-0.21;76.00
65369;HTU21D;51970;53.484;49.488;2023-02-13T12:02:30;-0.28;76.40
65369;HTU21D;51970;53.484;49.488;2023-02-13T12:05:19;-0.41;77.17
65369;HTU21D;51970;53.484;49.488;2023-02-13T12:08:16;-0.28;76.95
65369;HTU21D;51970;53.484;49.488;2023-02-13T12:10:48;-0.27;76.67
65369;HTU21D;51970;53.484;49.488;2023-02-13T12:13:28;-0.15;76.37
65369;HTU21D;51970;53.484;49.488;2023-02-13T12:16:03;-0.20;76.08
65369;HTU21D;51970;53.484;49.488;2023-02-13T12:18:37;-0.22;76.35
65369;HTU21D;51970;53.484;49.488;2023-02-13T12:30:15;-0.42;77.41
65369;HTU21D;51970;53.484;49.488;2023-02-13T12:44:04;-0.43;77.84
65369;HTU21D;51970;53.484;49.488;2023-02-13T12:47:17;-0.40;77.76
65369;HTU21D;51970;53.484;49.488;2023-02-13T12:56:20;-0.30;77.60
65369;HTU21D;51970;53.484;49.488;2023-02-13T13:01:59;-0.24;77.46
65369;HTU21D;51970;53.484;49.488;2023-02-13T13:04:57;-0.22;77.12
65369;HTU21D;51970;53.484;49.488;2023-02-13T13:11:17;-0.14;76.79
65369;HTU21D;51970;53.484;49.488;2023-02-13T13:14:21;-0.16;77.09
65369;HTU21D;51970;53.484;49.488;2023-02-13T13:17:32;-0.19;76.95
65369;HTU21D;51970;53.484;49.488;2023-02-13T13:26:17;-0.26;77.92
65369;HTU21D;51970;53.484;49.488;2023-02-13T13:29:14;-0.32;77.76
65369;HTU21D;51970;53.484;49.488;2023-02-13T13:31:57;-0.35;78.03
65369;HTU21D;51970;53.484;49.488;2023-02-13T13:34:30;-0.36;78.28
65369;HTU21D;51970;53.484;49.488;2023-02-13T13:40:45;-0.46;78.22
65369;HTU21D;51970;53.484;49.488;2023-02-13T13:43:51;-0.53;78.35
65369;HTU21D;51970;53.484;49.488;2023-02-13T13:49:34;-0.59;79.08
65369;HTU21D;51970;53.484;49.488;2023-02-13T13:52:29;-0.64;79.32
65369;HTU21D;51970;53.484;49.488;2023-02-13T13:54:58;-0.70;79.54
65369;HTU21D;51970;53.484;49.488;2023-02-13T14:00:34;-0.76;80.06
65369;HTU21D;51970;53.484;49.488;2023-02-13T14:03:23;-0.75;80.24
65369;HTU21D;51970;53.484;49.488;2023-02-13T14:06:03;-0.75;80.44
65369;HTU21D;51970;53.484;49.488;2023-02-13T14:13:37;-0.74;80.26
65369;HTU21D;51970;53.484;49.488;2023-02-13T14:16:45;-0.83;80.49
65369;HTU21D;51970;53.484;49.488;2023-02-13T14:19:34;-0.84;80.52
65369;HTU21D;51970;53.484;49.488;2023-02-13T14:22:24;-0.82;80.24
65369;HTU21D;51970;53.484;49.488;2023-02-13T14:24:54;-0.86;80.17
65369;HTU21D;51970;53.484;49.488;2023-02-13T14:27:22;-0.93;80.30
65369;HTU21D;51970;53.484;49.488;2023-02-13T14:29:49;-1.04;80.60
65369;HTU21D;51970;53.484;49.488;2023-02-13T14:32:31;-1.05;80.76
65369;HTU21D;51970;53.484;49.488;2023-02-13T14:37:54;-0.96;80.73
65369;HTU21D;51970;53.484;49.488;2023-02-13T14:43:42;-1.09;81.01
65369;HTU21D;51970;53.484;49.488;2023-02-13T14:49:02;-1.04;81.56
65369;HTU21D;51970;53.484;49.488;2023-02-13T14:51:44;-1.01;81.68
65369;HTU21D;51970;53.484;49.488;2023-02-13T14:57:14;-1.00;81.82
65369;HTU21D;51970;53.484;49.488;2023-02-13T14:59:52;-0.94;81.64
65369;HTU21D;51970;53.484;49.488;2023-02-13T15:02:41;-0.87;81.30
65369;HTU21D;51970;53.484;49.488;2023-02-13T15:05:14;-0.79;81.42
65369;HTU21D;51970;53.484;49.488;2023-02-13T15:07:46;-0.99;81.79
65369;HTU21D;51970;53.484;49.488;2023-02-13T15:12:40;-1.01;82.55
65369;HTU21D;51970;53.484;49.488;2023-02-13T15:15:32;-1.01;82.09
65369;HTU21D;51970;53.484;49.488;2023-02-13T15:21:04;-1.06;82.49
65369;HTU21D;51970;53.484;49.488;2023-02-13T15:23:35;-1.03;82.32
65369;HTU21D;51970;53.484;49.488;2023-02-13T15:26:04;-1.09;82.17
65369;HTU21D;51970;53.484;49.488;2023-02-13T15:28:32;-1.13;82.20
65369;HTU21D;51970;53.484;49.488;2023-02-13T15:31:16;-1.11;81.86
65369;HTU21D;51970;53.484;49.488;2023-02-13T15:33:47;-1.10;81.02
65369;HTU21D;51970;53.484;49.488;2023-02-13T15:36:34;-1.15;81.10
65369;HTU21D;51970;53.484;49.488;2023-02-13T15:39:03;-1.12;81.16
65369;HTU21D;51970;53.484;49.488;2023-02-13T15:41:42;-1.09;80.91
65369;HTU21D;51970;53.484;49.488;2023-02-13T15:44:16;-1.03;81.04
65369;HTU21D;51970;53.484;49.488;2023-02-13T15:46:49;-1.13;80.56
65369;HTU21D;51970;53.484;49.488;2023-02-13T15:49:23;-1.13;80.21
65369;HTU21D;51970;53.484;49.488;2023-02-13T15:52:01;-1.17;79.83
65369;HTU21D;51970;53.484;49.488;2023-02-13T15:54:31;-1.12;79.58
65369;HTU21D;51970;53.484;49.488;2023-02-13T15:57:04;-1.17;78.58
65369;HTU21D;51970;53.484;49.488;2023-02-13T15:59:36;-1.33;77.99
65369;HTU21D;51970;53.484;49.488;2023-02-13T16:02:05;-1.52;77.53
65369;HTU21D;51970;53.484;49.488;2023-02-13T16:04:35;-1.61;76.58
65369;HTU21D;51970;53.484;49.488;2023-02-13T16:07:10;-1.70;77.09
65369;HTU21D;51970;53.484;49.488;2023-02-13T16:09:45;-1.77;76.20
65369;HTU21D;51970;53.484;49.488;2023-02-13T16:12:27;-1.78;76.42
65369;HTU21D;51970;53.484;49.488;2023-02-13T16:14:59;-1.79;76.95
65369;HTU21D;51970;53.484;49.488;2023-02-13T16:17:31;-1.78;77.47
65369;HTU21D;51970;53.484;49.488;2023-02-13T16:20:06;-1.78;77.13
65369;HTU21D;51970;53.484;49.488;2023-02-13T16:22:49;-1.84;77.55
65369;HTU21D;51970;53.484;49.488;2023-02-13T16:25:32;-1.89;78.04
65369;HTU21D;51970;53.484;49.488;2023-02-13T16:28:26;-1.89;78.20
65369;HTU21D;51970;53.484;49.488;2023-02-13T16:31:15;-1.94;78.04
65369;HTU21D;51970;53.484;49.488;2023-02-13T16:33:52;-1.94;78.23
65369;HTU21D;51970;53.484;49.488;2023-02-13T16:36:33;-1.97;78.36
65369;HTU21D;51970;53.484;49.488;2023-02-13T16:39:21;-2.02;77.94
65369;HTU21D;51970;53.484;49.488;2023-02-13T16:42:03;-1.97;78.21
65369;HTU21D;51970;53.484;49.488;2023-02-13T16:44:41;-2.02;78.19
65369;HTU21D;51970;53.484;49.488;2023-02-13T16:47:22;-2.07;78.42
65369;HTU21D;51970;53.484;49.488;2023-02-13T16:49:53;-1.99;77.95
65369;HTU21D;51970;53.484;49.488;2023-02-13T16:52:25;-2.15;78.15
65369;HTU21D;51970;53.484;49.488;2023-02-13T16:55:01;-2.18;78.27
65369;HTU21D;51970;53.484;49.488;2023-02-13T16:57:32;-2.21;78.45
65369;HTU21D;51970;53.484;49.488;2023-02-13T17:00:21;-2.16;78.58
65369;HTU21D;51970;53.484;49.488;2023-02-13T17:02:53;-2.23;77.94
65369;HTU21D;51970;53.484;49.488;2023-02-13T17:05:27;-2.27;78.63
65369;HTU21D;51970;53.484;49.488;2023-02-13T17:07:56;-2.31;78.96
65369;HTU21D;51970;53.484;49.488;2023-02-13T17:10:35;-2.28;78.45
65369;HTU21D;51970;53.484;49.488;2023-02-13T17:13:13;-2.37;78.37
65369;HTU21D;51970;53.484;49.488;2023-02-13T17:15:46;-2.42;77.85
65369;HTU21D;51970;53.484;49.488;2023-02-13T17:18:19;-2.42;77.66
65369;HTU21D;51970;53.484;49.488;2023-02-13T17:20:46;-2.30;77.05
65369;HTU21D;51970;53.484;49.488;2023-02-13T17:23:21;-2.35;77.05
65369;HTU21D;51970;53.484;49.488;2023-02-13T17:25:50;-2.43;76.26
65369;HTU21D;51970;53.484;49.488;2023-02-13T17:30:47;-2.66;76.61
65369;HTU21D;51970;53.484;49.488;2023-02-13T17:33:23;-2.64;76.70
65369;HTU21D;51970;53.484;49.488;2023-02-13T17:35:54;-2.58;76.97
65369;HTU21D;51970;53.484;49.488;2023-02-13T17:38:20;-2.65;76.89
65369;HTU21D;51970;53.484;49.488;2023-02-13T17:40:46;-2.65;76.68
65369;HTU21D;51970;53.484;49.488;2023-02-13T17:43:14;-2.57;76.75
65369;HTU21D;51970;53.484;49.488;2023-02-13T17:45:41;-2.68;76.82
65369;HTU21D;51970;53.484;49.488;2023-02-13T17:48:07;-2.73;76.65
65369;HTU21D;51970;53.484;49.488;2023-02-13T17:50:34;-2.74;76.57
65369;HTU21D;51970;53.484;49.488;2023-02-13T17:53:03;-2.80;75.98
65369;HTU21D;51970;53.484;49.488;2023-02-13T17:55:33;-2.82;75.93
65369;HTU21D;51970;53.484;49.488;2023-02-13T17:57:59;-2.82;75.65
65369;HTU21D;51970;53.484;49.488;2023-02-13T18:00:29;-2.79;75.61
65369;HTU21D;51970;53.484;49.488;2023-02-13T18:02:57;-2.73;75.12
65369;HTU21D;51970;53.484;49.488;2023-02-13T18:05:26;-2.71;74.15
65369;HTU21D;51970;53.484;49.488;2023-02-13T18:07:54;-2.80;72.74
65369;HTU21D;51970;53.484;49.488;2023-02-13T18:10:26;-2.86;72.79
65369;HTU21D;51970;53.484;49.488;2023-02-13T18:12:54;-2.86;72.99
65369;HTU21D;51970;53.484;49.488;2023-02-13T18:15:21;-2.92;72.43
65369;HTU21D;51970;53.484;49.488;2023-02-13T18:17:50;-2.94;72.53
65369;HTU21D;51970;53.484;49.488;2023-02-13T18:20:18;-2.89;72.47
65369;HTU21D;51970;53.484;49.488;2023-02-13T18:22:47;-2.83;72.60
65369;HTU21D;51970;53.484;49.488;2023-02-13T18:25:16;-2.87;72.38
65369;HTU21D;51970;53.484;49.488;2023-02-13T18:27:44;-2.87;72.17
65369;HTU21D;51970;53.484;49.488;2023-02-13T18:30:14;-2.95;71.89
65369;HTU21D;51970;53.484;49.488;2023-02-13T18:32:42;-2.95;71.56
65369;HTU21D;51970;53.484;49.488;2023-02-13T18:35:10;-2.91;72.02
65369;HTU21D;51970;53.484;49.488;2023-02-13T18:37:36;-2.84;71.70
65369;HTU21D;51970;53.484;49.488;2023-02-13T18:40:06;-2.91;71.65
65369;HTU21D;51970;53.484;49.488;2023-02-13T18:42:33;-2.91;72.09
65369;HTU21D;51970;53.484;49.488;2023-02-13T18:45:01;-2.93;72.03
65369;HTU21D;51970;53.484;49.488;2023-02-13T18:47:27;-2.94;71.86